createdAt,value
2018-08-16T00:00:34.419Z,76.00
2018-08-16T00:03:02.512Z,75.70
2018-08-16T00:05:30.577Z,74.70
2018-08-16T00:07:58.675Z,74.50
2018-08-16T00:10:26.757Z,74.60
2018-08-16T00:12:54.788Z,74.70
2018-08-16T00:15:23.259Z,75.60
2018-08-16T00:17:51.344Z,76.40
2018-08-16T00:20:19.363Z,76.90
2018-08-16T00:22:47.781Z,77.30
2018-08-16T00:25:16.356Z,77.40
2018-08-16T00:27:44.423Z,77.50
2018-08-16T00:30:14.768Z,77.90
2018-08-16T00:32:43.267Z,78.30
2018-08-16T00:35:11.408Z,78.50
2018-08-16T00:37:39.475Z,78.60
2018-08-16T00:40:13.098Z,78.90
2018-08-16T00:42:41.235Z,79.20
2018-08-16T00:45:10.354Z,79.10
2018-08-16T00:47:38.551Z,79.50
2018-08-16T00:50:10.703Z,79.50
2018-08-16T00:52:38.760Z,79.50
2018-08-16T00:55:07.785Z,79.60
2018-08-16T00:57:36.244Z,79.80
2018-08-16T01:00:05.443Z,79.90
2018-08-16T01:02:33.539Z,80.00
2018-08-16T01:05:01.613Z,80.10
2018-08-16T01:07:29.692Z,80.20
2018-08-16T01:09:57.786Z,80.00
2018-08-16T01:12:26.071Z,80.00
2018-08-16T01:14:54.170Z,79.60
2018-08-16T01:17:22.256Z,78.80
2018-08-16T01:19:50.400Z,78.40
2018-08-16T01:22:18.455Z,77.80
2018-08-16T01:24:46.529Z,76.90
2018-08-16T01:27:14.632Z,77.00
2018-08-16T01:29:42.705Z,77.30
2018-08-16T01:32:10.787Z,77.60
2018-08-16T01:34:38.897Z,78.20
2018-08-16T01:37:07.001Z,79.00
2018-08-16T01:39:35.088Z,79.40
2018-08-16T01:42:03.336Z,79.40
2018-08-16T01:44:31.428Z,80.10
2018-08-16T01:46:59.449Z,80.40
2018-08-16T01:49:34.539Z,80.30
2018-08-16T01:52:02.619Z,80.30
2018-08-16T01:54:31.050Z,80.50
2018-08-16T01:56:59.949Z,80.80
2018-08-16T01:59:28.050Z,81.20
2018-08-16T02:01:56.152Z,81.30
2018-08-16T02:04:24.212Z,81.40
2018-08-16T02:06:52.675Z,81.70
2018-08-16T02:09:21.616Z,82.00
2018-08-16T02:11:49.771Z,81.90
2018-08-16T02:14:18.289Z,81.90
2018-08-16T02:16:55.769Z,82.80
2018-08-16T02:19:24.526Z,81.70
2018-08-16T02:21:53.028Z,81.60
2018-08-16T02:24:21.572Z,81.60
2018-08-16T02:26:50.208Z,81.60
2018-08-16T02:29:18.751Z,81.50
2018-08-16T02:31:47.205Z,81.90
2018-08-16T02:34:15.506Z,82.00
2018-08-16T02:36:43.988Z,82.00
2018-08-16T02:39:12.304Z,82.20
2018-08-16T02:41:40.706Z,83.20
2018-08-16T02:44:09.353Z,82.90
2018-08-16T02:46:38.007Z,82.80
2018-08-16T02:49:06.380Z,83.00
2018-08-16T02:51:35.236Z,83.30
2018-08-16T02:54:03.508Z,82.20
2018-08-16T02:56:32.105Z,82.10
2018-08-16T03:01:37.727Z,82.10
2018-08-16T03:04:06.272Z,82.20
2018-08-16T03:06:34.300Z,82.50
2018-08-16T03:09:02.401Z,82.70
2018-08-16T03:11:30.511Z,82.80
2018-08-16T03:13:58.628Z,82.90
2018-08-16T03:16:27.087Z,82.80
2018-08-16T03:18:55.103Z,82.60
2018-08-16T03:21:23.193Z,82.90
2018-08-16T03:23:51.252Z,82.30
2018-08-16T03:26:19.315Z,82.10
2018-08-16T03:28:47.527Z,82.00
2018-08-16T03:31:15.670Z,82.10
2018-08-16T03:33:44.294Z,81.70
2018-08-16T03:36:12.364Z,81.70
2018-08-16T03:38:40.459Z,81.70
2018-08-16T03:41:08.528Z,81.70
2018-08-16T03:43:36.641Z,81.70
2018-08-16T03:46:04.782Z,81.90
2018-08-16T03:48:32.844Z,81.60
2018-08-16T03:51:01.035Z,81.50
2018-08-16T03:53:29.593Z,81.60
2018-08-16T03:55:57.994Z,81.60
2018-08-16T03:58:26.141Z,81.60
2018-08-16T04:00:54.194Z,81.70
2018-08-16T04:03:22.342Z,81.30
2018-08-16T04:05:50.467Z,80.90
2018-08-16T04:08:18.540Z,80.90
2018-08-16T04:10:46.656Z,80.60
2018-08-16T04:13:14.856Z,80.60
2018-08-16T04:15:42.940Z,80.50
2018-08-16T04:18:11.452Z,80.50
2018-08-16T04:20:39.689Z,80.40
2018-08-16T04:23:07.847Z,80.40
2018-08-16T04:25:35.930Z,80.50
2018-08-16T04:28:04.268Z,80.20
2018-08-16T04:30:32.419Z,80.20
2018-08-16T04:33:00.521Z,80.10
2018-08-16T04:35:28.764Z,80.20
2018-08-16T04:37:56.816Z,80.30
2018-08-16T04:40:24.942Z,80.30
2018-08-16T04:42:53.294Z,80.50
2018-08-16T04:45:21.488Z,80.60
2018-08-16T04:47:49.614Z,80.80
2018-08-16T04:50:17.942Z,80.50
2018-08-16T04:52:46.045Z,81.60
2018-08-16T04:55:14.094Z,80.60
2018-08-16T04:57:42.114Z,80.60
2018-08-16T05:00:11.986Z,80.60
2018-08-16T05:02:40.252Z,80.70
2018-08-16T05:05:08.874Z,80.30
2018-08-16T05:07:37.105Z,80.10
2018-08-16T05:10:06.333Z,79.80
2018-08-16T05:12:34.405Z,79.30
2018-08-16T05:15:02.514Z,78.90
2018-08-16T05:17:30.598Z,78.80
2018-08-16T05:19:58.709Z,79.00
2018-08-16T05:22:26.779Z,78.90
2018-08-16T05:24:54.886Z,78.70
2018-08-16T05:27:22.976Z,78.00
2018-08-16T05:29:51.090Z,78.00
2018-08-16T05:32:19.164Z,78.20
2018-08-16T05:34:47.270Z,78.20
2018-08-16T05:37:15.344Z,78.20
2018-08-16T05:39:43.370Z,77.60
2018-08-16T05:42:11.481Z,77.00
2018-08-16T05:44:39.592Z,77.00
2018-08-16T05:47:07.744Z,76.80
2018-08-16T05:49:35.778Z,76.80
2018-08-16T05:52:04.033Z,76.50
2018-08-16T05:54:32.104Z,75.50
2018-08-16T05:57:00.192Z,75.00
2018-08-16T05:59:28.338Z,74.80
2018-08-16T06:01:56.417Z,74.50
2018-08-16T06:04:24.512Z,74.30
2018-08-16T06:06:52.681Z,74.30
2018-08-16T06:09:20.770Z,73.40
2018-08-16T06:11:48.816Z,72.30
2018-08-16T06:14:16.891Z,72.80
2018-08-16T06:16:45.051Z,72.90
2018-08-16T06:19:13.091Z,71.90
2018-08-16T06:21:41.232Z,71.80
2018-08-16T06:24:09.435Z,71.10
2018-08-16T06:26:37.489Z,70.50
2018-08-16T06:29:05.547Z,69.80
2018-08-16T06:31:33.627Z,69.50
2018-08-16T06:34:01.688Z,69.20
2018-08-16T06:36:29.744Z,68.50
2018-08-16T06:38:57.945Z,68.70
2018-08-16T06:41:26.001Z,67.60
2018-08-16T06:43:54.061Z,67.60
2018-08-16T06:46:22.266Z,66.80
2018-08-16T06:48:50.256Z,65.70
2018-08-16T06:51:18.336Z,65.10
2018-08-16T06:53:46.444Z,64.50
2018-08-16T06:56:14.540Z,64.70
2018-08-16T06:58:42.617Z,64.20
2018-08-16T07:01:10.929Z,64.10
2018-08-16T07:03:39.076Z,64.10
2018-08-16T07:06:07.161Z,63.60
2018-08-16T07:08:35.243Z,62.70
2018-08-16T07:11:03.373Z,62.00
2018-08-16T07:13:31.508Z,61.30
2018-08-16T07:15:59.606Z,60.00
2018-08-16T07:18:27.644Z,59.70
2018-08-16T07:20:55.704Z,59.10
2018-08-16T07:23:23.855Z,59.40
2018-08-16T07:25:52.098Z,58.50
2018-08-16T07:28:20.273Z,58.10
2018-08-16T07:30:48.315Z,58.20
2018-08-16T07:33:16.408Z,57.20
2018-08-16T07:35:44.550Z,56.60
2018-08-16T07:38:12.637Z,56.40
2018-08-16T07:40:40.708Z,56.20
2018-08-16T07:43:08.904Z,55.10
2018-08-16T07:45:37.406Z,55.20
2018-08-16T07:48:05.911Z,54.30
2018-08-16T07:50:34.035Z,54.50
2018-08-16T07:53:02.122Z,53.00
2018-08-16T07:55:30.196Z,52.60
2018-08-16T07:57:58.331Z,52.40
2018-08-16T08:00:26.445Z,52.30
2018-08-16T08:02:54.513Z,51.80
2018-08-16T08:05:22.618Z,50.60
2018-08-16T08:07:50.756Z,51.00
2018-08-16T08:10:18.865Z,51.30
2018-08-16T08:12:46.968Z,50.80
2018-08-16T08:15:17.523Z,50.40
2018-08-16T08:17:45.680Z,50.20
2018-08-16T08:20:14.920Z,50.00
2018-08-16T08:22:43.413Z,49.60
2018-08-16T08:25:12.333Z,49.50
2018-08-16T08:27:40.363Z,49.30
2018-08-16T08:30:11.414Z,48.30
2018-08-16T08:32:39.800Z,48.30
2018-08-16T08:35:07.902Z,48.20
2018-08-16T08:37:47.670Z,48.00
2018-08-16T08:40:16.225Z,47.70
2018-08-16T08:42:44.564Z,46.60
2018-08-16T08:45:12.603Z,45.70
2018-08-16T08:47:46.797Z,45.70
2018-08-16T08:50:14.910Z,45.70
2018-08-16T08:52:42.953Z,44.80
2018-08-16T08:55:22.572Z,44.40
2018-08-16T08:58:02.269Z,42.60
2018-08-16T09:00:30.389Z,43.50
2018-08-16T09:02:58.428Z,41.10
2018-08-16T09:05:26.477Z,36.60
2018-08-16T09:07:54.601Z,35.60
2018-08-16T09:11:15.194Z,33.40
2018-08-16T09:13:56.036Z,31.20
2018-08-16T09:16:28.125Z,31.60
2018-08-16T09:18:56.566Z,29.90
2018-08-16T09:21:24.756Z,30.40
2018-08-16T09:23:53.022Z,29.20
2018-08-16T09:26:26.700Z,28.40
2018-08-16T09:28:54.914Z,28.90
2018-08-16T09:31:34.814Z,29.80
2018-08-16T09:34:14.147Z,28.70
2018-08-16T09:36:42.223Z,28.20
2018-08-16T09:39:10.554Z,28.20
2018-08-16T09:41:39.018Z,27.90
2018-08-16T09:44:07.234Z,28.00
2018-08-16T09:47:01.376Z,28.10
2018-08-16T09:49:30.888Z,28.20
2018-08-16T09:51:59.064Z,27.90
2018-08-16T09:54:27.243Z,29.30
2018-08-16T09:56:56.278Z,30.90
2018-08-16T09:59:24.367Z,30.10
2018-08-16T10:01:52.653Z,30.10
2018-08-16T10:04:20.892Z,29.80
2018-08-16T10:06:49.006Z,31.70
2018-08-16T10:09:19.536Z,31.90
2018-08-16T10:11:48.135Z,29.60
2018-08-16T10:14:16.577Z,29.30
2018-08-16T10:16:44.698Z,28.10
2018-08-16T10:19:12.760Z,28.40
2018-08-16T10:21:40.866Z,28.10
2018-08-16T10:24:08.930Z,27.30
2018-08-16T10:27:40.552Z,27.00
2018-08-16T10:30:09.293Z,27.70
2018-08-16T10:32:37.397Z,28.60
2018-08-16T10:35:05.590Z,28.70
2018-08-16T10:37:33.671Z,28.10
2018-08-16T10:40:01.786Z,27.00
2018-08-16T10:42:30.031Z,27.10
2018-08-16T10:44:58.114Z,27.60
2018-08-16T10:47:26.303Z,26.50
2018-08-16T10:49:54.326Z,26.00
2018-08-16T10:52:22.365Z,26.80
2018-08-16T10:54:50.440Z,26.70
2018-08-16T10:57:18.516Z,26.00
2018-08-16T10:59:46.625Z,26.20
2018-08-16T11:02:14.709Z,27.50
2018-08-16T11:04:42.777Z,27.70
2018-08-16T11:07:10.836Z,26.70
2018-08-16T11:09:39.009Z,26.50
2018-08-16T11:12:07.046Z,26.20
2018-08-16T11:14:35.095Z,25.70
2018-08-16T11:17:03.190Z,25.50
2018-08-16T11:19:31.302Z,24.90
2018-08-16T11:21:59.402Z,24.00
2018-08-16T11:24:27.442Z,24.50
2018-08-16T11:26:55.520Z,25.60
2018-08-16T11:29:23.935Z,24.20
2018-08-16T11:31:52.193Z,24.50
2018-08-16T11:34:20.283Z,24.60
2018-08-16T11:36:48.398Z,24.60
2018-08-16T11:39:16.506Z,24.10
2018-08-16T11:41:44.609Z,23.80
2018-08-16T11:44:12.705Z,24.00
2018-08-16T11:46:40.892Z,25.20
2018-08-16T11:49:08.959Z,26.70
2018-08-16T11:51:37.017Z,28.50
2018-08-16T11:54:05.116Z,28.20
2018-08-16T11:56:33.223Z,27.00
2018-08-16T11:59:01.269Z,27.20
2018-08-16T12:01:29.372Z,26.30
2018-08-16T12:03:57.440Z,26.00
2018-08-16T12:06:25.622Z,26.40
2018-08-16T12:08:53.615Z,26.60
2018-08-16T12:11:21.721Z,26.70
2018-08-16T12:13:49.941Z,26.00
2018-08-16T12:16:18.009Z,25.70
2018-08-16T12:18:46.080Z,25.10
2018-08-16T12:21:14.191Z,26.20
2018-08-16T12:23:42.277Z,27.00
2018-08-16T12:26:10.364Z,27.10
2018-08-16T12:28:38.473Z,26.30
2018-08-16T12:31:06.574Z,26.00
2018-08-16T12:33:34.611Z,25.60
2018-08-16T12:36:02.678Z,24.90
2018-08-16T12:38:30.788Z,26.80
2018-08-16T12:40:58.875Z,25.40
2018-08-16T12:43:32.345Z,26.20
2018-08-16T12:46:00.420Z,25.90
2018-08-16T12:48:28.593Z,26.60
2018-08-16T12:50:56.602Z,25.60
2018-08-16T12:53:24.715Z,25.20
2018-08-16T12:55:52.763Z,26.00
2018-08-16T12:58:20.876Z,25.90
2018-08-16T13:00:48.909Z,26.50
2018-08-16T13:03:16.935Z,25.80
2018-08-16T13:05:45.016Z,25.30
2018-08-16T13:08:13.116Z,25.80
2018-08-16T13:10:41.217Z,26.30
2018-08-16T13:13:09.279Z,27.50
2018-08-16T13:15:37.392Z,26.40
2018-08-16T13:18:05.640Z,26.10
2018-08-16T13:20:33.703Z,27.10
2018-08-16T13:23:01.769Z,26.30
2018-08-16T13:25:30.082Z,26.70
2018-08-16T13:27:58.110Z,26.80
2018-08-16T13:30:26.222Z,27.10
2018-08-16T13:32:54.357Z,27.40
2018-08-16T13:35:22.428Z,27.30
2018-08-16T13:37:50.524Z,27.50
2018-08-16T13:40:18.615Z,27.60
2018-08-16T13:42:46.693Z,27.30
2018-08-16T13:45:15.460Z,27.40
2018-08-16T13:47:43.655Z,27.10
2018-08-16T13:50:11.800Z,27.70
2018-08-16T13:52:40.236Z,27.80
2018-08-16T13:55:08.486Z,28.00
2018-08-16T13:57:36.499Z,28.20
2018-08-16T14:00:05.649Z,28.20
2018-08-16T14:02:33.716Z,28.90
2018-08-16T14:05:01.853Z,28.60
2018-08-16T14:07:29.930Z,28.90
2018-08-16T14:09:58.154Z,29.10
2018-08-16T14:12:26.357Z,28.50
2018-08-16T14:14:54.502Z,28.20
2018-08-16T14:17:22.547Z,29.00
2018-08-16T14:19:50.631Z,28.50
2018-08-16T14:22:18.635Z,28.50
2018-08-16T14:31:49.698Z,28.60
2018-08-16T14:34:17.755Z,28.60
2018-08-16T14:36:45.810Z,27.90
2018-08-16T14:39:13.885Z,28.30
2018-08-16T14:41:42.360Z,28.40
2018-08-16T14:44:10.463Z,28.40
2018-08-16T14:46:38.537Z,28.50
2018-08-16T14:49:06.591Z,28.80
2018-08-16T14:51:34.738Z,28.40
2018-08-16T14:54:02.825Z,28.70
2018-08-16T14:56:30.855Z,28.50
2018-08-16T14:58:58.966Z,29.00
2018-08-16T15:01:27.054Z,28.80
2018-08-16T15:03:55.231Z,28.80
2018-08-16T15:06:23.340Z,29.20
2018-08-16T15:08:51.436Z,29.50
2018-08-16T15:11:19.483Z,29.30
2018-08-16T15:13:47.553Z,29.90
2018-08-16T15:16:15.644Z,29.20
2018-08-16T15:18:43.766Z,28.80
2018-08-16T15:21:11.873Z,29.50
2018-08-16T15:23:40.001Z,29.10
2018-08-16T15:26:08.332Z,29.70
2018-08-16T15:28:36.400Z,29.30
2018-08-16T15:31:04.502Z,29.80
2018-08-16T15:33:32.709Z,29.10
2018-08-16T15:36:00.788Z,29.10
2018-08-16T15:38:28.986Z,29.20
2018-08-16T15:40:57.066Z,29.30
2018-08-16T15:43:25.169Z,29.60
2018-08-16T15:45:53.190Z,28.90
2018-08-16T15:48:21.281Z,29.60
2018-08-16T15:50:49.401Z,29.30
2018-08-16T15:53:17.460Z,29.40
2018-08-16T15:55:45.547Z,29.20
2018-08-16T15:58:13.627Z,29.40
2018-08-16T16:00:41.672Z,29.30
2018-08-16T16:03:09.770Z,29.20
2018-08-16T16:05:37.913Z,29.40
2018-08-16T16:08:05.874Z,29.10
2018-08-16T16:10:34.099Z,29.90
2018-08-16T16:13:02.350Z,30.00
2018-08-16T16:15:30.437Z,29.90
2018-08-16T16:17:58.622Z,30.00
2018-08-16T16:20:26.996Z,29.90
2018-08-16T16:22:55.096Z,30.20
2018-08-16T16:25:23.161Z,30.60
2018-08-16T16:27:51.276Z,30.90
2018-08-16T16:30:19.353Z,31.00
2018-08-16T16:32:47.437Z,31.40
2018-08-16T16:35:15.549Z,31.90
2018-08-16T16:37:43.611Z,31.70
2018-08-16T16:40:11.813Z,31.50
2018-08-16T16:42:40.461Z,31.70
2018-08-16T16:45:09.097Z,31.40
2018-08-16T16:47:37.239Z,31.80
2018-08-16T16:50:06.163Z,32.00
2018-08-16T16:52:34.206Z,31.50
2018-08-16T16:55:02.264Z,31.40
2018-08-16T16:57:30.339Z,31.30
2018-08-16T16:59:58.371Z,31.60
2018-08-16T17:02:26.423Z,31.30
2018-08-16T17:04:54.566Z,31.50
2018-08-16T17:07:22.727Z,31.80
2018-08-16T17:09:50.813Z,32.10
2018-08-16T17:12:18.949Z,32.30
2018-08-16T17:14:47.035Z,32.50
2018-08-16T17:17:15.110Z,32.60
2018-08-16T17:19:43.242Z,32.90
2018-08-16T17:22:11.336Z,33.10
2018-08-16T17:24:39.419Z,33.00
2018-08-16T17:27:07.492Z,33.10
2018-08-16T17:29:35.556Z,32.90
2018-08-16T17:32:03.775Z,33.10
2018-08-16T17:34:31.845Z,33.00
2018-08-16T17:36:59.959Z,33.30
2018-08-16T17:39:28.044Z,34.20
2018-08-16T17:41:56.112Z,33.80
2018-08-16T17:44:24.224Z,33.80
2018-08-16T17:46:52.491Z,34.00
2018-08-16T17:49:20.759Z,34.20
2018-08-16T17:51:48.828Z,34.50
2018-08-16T17:54:16.973Z,34.70
2018-08-16T17:56:45.180Z,35.00
2018-08-16T17:59:13.278Z,36.20
2018-08-16T18:01:41.402Z,35.60
2018-08-16T18:04:09.606Z,36.00
2018-08-16T18:06:37.741Z,36.30
2018-08-16T18:09:07.137Z,36.60
2018-08-16T18:11:35.200Z,36.30
2018-08-16T18:14:04.912Z,36.70
2018-08-16T18:16:33.070Z,37.00
2018-08-16T18:19:01.098Z,37.30
2018-08-16T18:21:29.218Z,37.80
2018-08-16T18:23:57.290Z,38.30
2018-08-16T18:26:25.398Z,38.60
2018-08-16T18:28:53.473Z,38.60
2018-08-16T18:31:21.616Z,38.70
2018-08-16T18:33:49.741Z,39.40
2018-08-16T18:36:17.828Z,39.00
2018-08-16T18:38:45.892Z,39.10
2018-08-16T18:41:14.274Z,39.50
2018-08-16T18:43:42.386Z,40.00
2018-08-16T18:46:10.467Z,40.20
2018-08-16T18:48:38.557Z,40.70
2018-08-16T18:51:06.643Z,40.60
2018-08-16T18:53:34.785Z,40.60
2018-08-16T18:56:02.864Z,40.90
2018-08-16T18:58:30.936Z,41.00
2018-08-16T19:00:58.971Z,41.50
2018-08-16T19:06:17.584Z,42.10
2018-08-16T19:08:45.633Z,42.40
2018-08-16T19:11:13.757Z,42.80
2018-08-16T19:13:41.858Z,43.10
2018-08-16T19:16:10.027Z,43.20
2018-08-16T19:18:38.161Z,43.70
2018-08-16T19:21:06.274Z,43.80
2018-08-16T19:23:34.345Z,44.10
2018-08-16T19:26:02.453Z,44.30
2018-08-16T19:28:30.536Z,44.40
2018-08-16T19:30:58.768Z,44.50
2018-08-16T19:33:26.873Z,44.70
2018-08-16T19:35:54.940Z,45.30
2018-08-16T19:38:23.090Z,45.30
2018-08-16T19:40:51.289Z,45.50
2018-08-16T19:43:19.382Z,46.00
2018-08-16T19:45:47.506Z,46.20
2018-08-16T19:48:15.661Z,46.10
2018-08-16T19:50:43.651Z,46.50
2018-08-16T19:53:11.810Z,46.40
2018-08-16T19:55:39.934Z,46.90
2018-08-16T19:58:08.150Z,46.90
2018-08-16T20:00:36.193Z,47.00
2018-08-16T20:03:04.298Z,47.80
2018-08-16T20:05:32.362Z,47.40
2018-08-16T20:08:00.436Z,47.50
2018-08-16T20:10:28.613Z,47.50
2018-08-16T20:12:56.663Z,47.60
2018-08-16T20:15:24.753Z,47.60
2018-08-16T20:17:52.857Z,48.10
2018-08-16T20:20:20.974Z,48.30
2018-08-16T20:22:49.100Z,48.80
2018-08-16T20:25:17.162Z,48.80
2018-08-16T20:27:45.270Z,49.60
2018-08-16T20:30:13.489Z,50.10
2018-08-16T20:32:41.550Z,49.90
2018-08-16T20:35:09.656Z,50.60
2018-08-16T20:37:37.976Z,50.00
2018-08-16T20:40:06.223Z,50.80
2018-08-16T20:42:34.355Z,50.40
2018-08-16T20:45:02.453Z,50.40
2018-08-16T20:47:32.306Z,50.50
2018-08-16T20:50:00.429Z,50.60
2018-08-16T20:52:28.524Z,50.70
2018-08-16T20:54:56.675Z,50.90
2018-08-16T20:57:24.853Z,50.80
2018-08-16T20:59:52.935Z,50.80
2018-08-16T21:02:21.016Z,51.10
2018-08-16T21:04:49.117Z,51.30
2018-08-16T21:07:17.239Z,51.50
2018-08-16T21:09:45.312Z,51.60
2018-08-16T21:12:13.422Z,51.90
2018-08-16T21:14:41.534Z,52.40
2018-08-16T21:17:09.735Z,52.60
2018-08-16T21:19:37.826Z,52.70
2018-08-16T21:22:06.206Z,52.40
2018-08-16T21:24:34.266Z,52.20
2018-08-16T21:27:02.305Z,52.40
2018-08-16T21:29:30.383Z,52.70
2018-08-16T21:31:58.451Z,52.90
2018-08-16T21:34:26.541Z,52.90
2018-08-16T21:36:54.580Z,53.10
2018-08-16T21:39:22.901Z,53.20
2018-08-16T21:41:51.023Z,53.50
2018-08-16T21:44:19.135Z,53.60
2018-08-16T21:46:47.268Z,53.50
2018-08-16T21:49:15.412Z,53.60
2018-08-16T21:51:43.519Z,54.00
2018-08-16T21:54:11.625Z,54.00
2018-08-16T21:56:39.713Z,54.30
2018-08-16T21:59:07.982Z,54.40
2018-08-16T22:01:36.113Z,54.50
2018-08-16T22:04:04.220Z,54.60
2018-08-16T22:06:43.812Z,55.10
2018-08-16T22:09:13.600Z,55.40
2018-08-16T22:11:41.679Z,55.60
2018-08-16T22:14:09.770Z,55.90
2018-08-16T22:16:37.901Z,56.10
2018-08-16T22:19:05.971Z,56.40
2018-08-16T22:21:34.053Z,56.40
2018-08-16T22:24:02.150Z,56.70
2018-08-16T22:26:30.199Z,56.30
2018-08-16T22:28:58.255Z,56.10
2018-08-16T22:31:26.322Z,56.10
2018-08-16T22:33:54.379Z,56.00
2018-08-16T22:36:22.432Z,55.90
2018-08-16T22:38:50.524Z,55.70
2018-08-16T22:41:18.593Z,55.90
2018-08-16T22:43:46.839Z,56.20
2018-08-16T22:46:14.892Z,55.70
2018-08-16T22:48:42.944Z,56.20
2018-08-16T22:51:11.033Z,56.30
2018-08-16T22:53:39.149Z,56.60
2018-08-16T22:56:07.213Z,56.60
2018-08-16T22:58:35.309Z,56.50
2018-08-16T23:01:03.438Z,56.50
2018-08-16T23:03:31.554Z,56.40
2018-08-16T23:05:59.623Z,56.50
2018-08-16T23:08:27.719Z,56.50
2018-08-16T23:10:55.824Z,56.90
2018-08-16T23:13:23.909Z,57.00
2018-08-16T23:15:52.009Z,56.70
2018-08-16T23:18:20.047Z,56.60
2018-08-16T23:20:48.137Z,56.80
2018-08-16T23:23:16.225Z,57.10
2018-08-16T23:25:44.334Z,57.00
2018-08-16T23:28:12.428Z,57.00
2018-08-16T23:30:40.450Z,57.10
2018-08-16T23:33:08.528Z,56.60
2018-08-16T23:35:36.593Z,57.00
2018-08-16T23:38:04.696Z,57.40
2018-08-16T23:40:32.779Z,57.50
2018-08-16T23:43:00.860Z,57.00
2018-08-16T23:45:28.991Z,56.60
2018-08-16T23:48:08.672Z,56.70
2018-08-16T23:50:36.782Z,57.10
2018-08-16T23:53:04.910Z,57.40
2018-08-16T23:55:33.073Z,57.60
2018-08-16T23:58:01.111Z,57.10
